sensor_id;sensor_type;location;lat;lon;timestamp;pressure;altitude;pressure_sealevel;temperature;humidity
5283;BME280;15376;48.540;9.268;2023-04-09T00:00:24;98147.84;;;5.75;100.00
5283;BME280;15376;48.540;9.268;2023-04-09T00:02:50;98144.25;;;5.76;100.00
5283;BME280;15376;48.540;9.268;2023-04-09T00:05:15;98145.78;;;5.78;100.00
5283;BME280;15376;48.540;9.268;2023-04-09T00:07:40;98149.81;;;5.82;100.00
5283;BME280;15376;48.540;9.268;2023-04-09T00:10:06;98136.78;;;5.81;100.00
5283;BME280;15376;48.540;9.268;2023-04-09T00:12:32;98136.78;;;5.81;100.00
5283;BME280;15376;48.540;9.268;2023-04-09T00:14:57;98142.94;;;5.91;100.00
5283;BME280;15376;48.540;9.268;2023-04-09T00:17:22;98144.53;;;5.82;100.00
5283;BME280;15376;48.540;9.268;2023-04-09T00:19:48;98134.97;;;5.72;100.00
5283;BME280;15376;48.540;9.268;2023-04-09T00:22:13;98142.16;;;5.69;100.00
5283;BME280;15376;48.540;9.268;2023-04-09T00:24:39;98142.56;;;5.65;100.00
5283;BME280;15376;48.540;9.268;2023-04-09T00:27:05;98127.84;;;5.62;100.00
5283;BME280;15376;48.540;9.268;2023-04-09T00:29:30;98133.56;;;5.67;100.00
5283;BME280;15376;48.540;9.268;2023-04-09T00:31:55;98136.19;;;5.67;100.00
5283;BME280;15376;48.540;9.268;2023-04-09T00:34:21;98133.44;;;5.59;100.00
5283;BME280;15376;48.540;9.268;2023-04-09T00:36:46;98139.09;;;5.55;100.00
5283;BME280;15376;48.540;9.268;2023-04-09T00:39:11;98143.97;;;5.59;100.00
5283;BME280;15376;48.540;9.268;2023-04-09T00:41:37;98135.91;;;5.61;100.00
5283;BME280;15376;48.540;9.268;2023-04-09T00:44:02;98141.72;;;5.55;100.00
5283;BME280;15376;48.540;9.268;2023-04-09T00:46:28;98141.16;;;5.51;100.00
5283;BME280;15376;48.540;9.268;2023-04-09T00:48:53;98128.69;;;5.53;100.00
5283;BME280;15376;48.540;9.268;2023-04-09T00:51:18;98137.56;;;5.62;100.00
5283;BME280;15376;48.540;9.268;2023-04-09T00:53:44;98145.91;;;5.67;100.00
5283;BME280;15376;48.540;9.268;2023-04-09T00:56:11;98142.28;;;5.68;100.00
5283;BME280;15376;48.540;9.268;2023-04-09T00:58:39;98138.81;;;5.67;100.00
5283;BME280;15376;48.540;9.268;2023-04-09T01:01:04;98123.69;;;5.60;100.00
5283;BME280;15376;48.540;9.268;2023-04-09T01:03:30;98136.88;;;5.60;100.00
5283;BME280;15376;48.540;9.268;2023-04-09T01:05:59;98144.22;;;5.56;100.00
5283;BME280;15376;48.540;9.268;2023-04-09T01:08:40;98138.09;;;5.46;100.00
5283;BME280;15376;48.540;9.268;2023-04-09T01:11:31;98137.13;;;5.47;100.00
5283;BME280;15376;48.540;9.268;2023-04-09T01:16:46;98135.84;;;5.32;100.00
5283;BME280;15376;48.540;9.268;2023-04-09T01:21:49;98135.13;;;5.30;100.00
5283;BME280;15376;48.540;9.268;2023-04-09T01:24:39;98132.66;;;5.38;100.00
5283;BME280;15376;48.540;9.268;2023-04-09T01:27:08;98134.91;;;5.43;100.00
5283;BME280;15376;48.540;9.268;2023-04-09T01:29:38;98130.47;;;5.43;100.00
5283;BME280;15376;48.540;9.268;2023-04-09T01:32:06;98143.06;;;5.40;100.00
5283;BME280;15376;48.540;9.268;2023-04-09T01:34:33;98139.13;;;5.24;100.00
5283;BME280;15376;48.540;9.268;2023-04-09T01:37:01;98138.28;;;5.24;100.00
5283;BME280;15376;48.540;9.268;2023-04-09T01:39:27;98138.28;;;5.24;100.00
5283;BME280;15376;48.540;9.268;2023-04-09T01:41:54;98148.03;;;5.33;100.00
5283;BME280;15376;48.540;9.268;2023-04-09T01:44:20;98150.75;;;5.22;100.00
5283;BME280;15376;48.540;9.268;2023-04-09T01:46:48;98141.84;;;5.03;100.00
5283;BME280;15376;48.540;9.268;2023-04-09T01:49:14;98153.50;;;5.11;100.00
5283;BME280;15376;48.540;9.268;2023-04-09T01:51:41;98150.44;;;5.06;100.00
5283;BME280;15376;48.540;9.268;2023-04-09T01:54:07;98150.19;;;5.09;100.00
5283;BME280;15376;48.540;9.268;2023-04-09T01:56:43;98153.25;;;5.14;100.00
5283;BME280;15376;48.540;9.268;2023-04-09T01:59:09;98147.47;;;5.20;100.00
5283;BME280;15376;48.540;9.268;2023-04-09T02:01:39;98139.41;;;5.21;100.00
5283;BME280;15376;48.540;9.268;2023-04-09T02:04:15;98138.28;;;5.24;100.00
5283;BME280;15376;48.540;9.268;2023-04-09T02:06:47;98142.91;;;5.31;100.00
5283;BME280;15376;48.540;9.268;2023-04-09T02:09:19;98140.00;;;5.34;100.00
5283;BME280;15376;48.540;9.268;2023-04-09T02:11:46;98147.25;;;5.42;100.00
5283;BME280;15376;48.540;9.268;2023-04-09T02:14:13;98147.50;;;5.39;100.00
5283;BME280;15376;48.540;9.268;2023-04-09T02:16:40;98142.66;;;5.44;100.00
5283;BME280;15376;48.540;9.268;2023-04-09T02:19:05;98132.25;;;5.33;100.00
5283;BME280;15376;48.540;9.268;2023-04-09T02:21:31;98135.31;;;5.38;100.00
5283;BME280;15376;48.540;9.268;2023-04-09T02:23:56;98139.34;;;5.42;100.00
5283;BME280;15376;48.540;9.268;2023-04-09T02:26:22;98127.00;;;5.43;100.00
5283;BME280;15376;48.540;9.268;2023-04-09T02:28:48;98131.72;;;5.49;100.00
5283;BME280;15376;48.540;9.268;2023-04-09T02:31:13;98120.63;;;5.45;100.00
5283;BME280;15376;48.540;9.268;2023-04-09T02:33:39;98119.94;;;5.43;100.00
5283;BME280;15376;48.540;9.268;2023-04-09T02:36:05;98124.81;;;5.48;100.00
5283;BME280;15376;48.540;9.268;2023-04-09T02:38:30;98125.22;;;5.53;100.00
5283;BME280;15376;48.540;9.268;2023-04-09T02:40:56;98126.06;;;5.53;100.00
5283;BME280;15376;48.540;9.268;2023-04-09T02:43:21;98138.97;;;5.56;100.00
5283;BME280;15376;48.540;9.268;2023-04-09T02:45:47;98133.28;;;5.51;100.00
5283;BME280;15376;48.540;9.268;2023-04-09T02:48:12;98126.88;;;5.44;100.00
5283;BME280;15376;48.540;9.268;2023-04-09T02:50:37;98127.81;;;5.33;100.00
5283;BME280;15376;48.540;9.268;2023-04-09T02:53:03;98136.81;;;5.31;100.00
5283;BME280;15376;48.540;9.268;2023-04-09T02:55:28;98130.25;;;5.25;100.00
5283;BME280;15376;48.540;9.268;2023-04-09T02:57:53;98126.69;;;5.36;100.00
5283;BME280;15376;48.540;9.268;2023-04-09T03:00:19;98121.97;;;5.30;100.00
5283;BME280;15376;48.540;9.268;2023-04-09T03:02:44;98130.31;;;5.35;100.00
5283;BME280;15376;48.540;9.268;2023-04-09T03:05:10;98128.09;;;5.40;100.00
5283;BME280;15376;48.540;9.268;2023-04-09T03:07:35;98118.97;;;5.44;100.00
5283;BME280;15376;48.540;9.268;2023-04-09T03:10:01;98116.59;;;5.41;100.00
5283;BME280;15376;48.540;9.268;2023-04-09T03:12:26;98126.31;;;5.41;100.00
5283;BME280;15376;48.540;9.268;2023-04-09T03:14:51;98120.03;;;5.32;100.00
5283;BME280;15376;48.540;9.268;2023-04-09T03:17:17;98120.03;;;5.32;100.00
5283;BME280;15376;48.540;9.268;2023-04-09T03:19:42;98111.56;;;5.28;100.00
5283;BME280;15376;48.540;9.268;2023-04-09T03:22:08;98117.84;;;5.37;100.00
5283;BME280;15376;48.540;9.268;2023-04-09T03:24:33;98113.53;;;5.36;100.00
5283;BME280;15376;48.540;9.268;2023-04-09T03:26:58;98114.91;;;5.30;100.00
5283;BME280;15376;48.540;9.268;2023-04-09T03:29:24;98116.44;;;5.33;100.00
5283;BME280;15376;48.540;9.268;2023-04-09T03:31:50;98113.94;;;5.31;100.00
5283;BME280;15376;48.540;9.268;2023-04-09T03:34:15;98105.03;;;5.23;100.00
5283;BME280;15376;48.540;9.268;2023-04-09T03:36:40;98113.63;;;5.15;100.00
5283;BME280;15376;48.540;9.268;2023-04-09T03:39:06;98116.00;;;5.18;100.00
5283;BME280;15376;48.540;9.268;2023-04-09T03:41:31;98127.63;;;5.16;100.00
5283;BME280;15376;48.540;9.268;2023-04-09T03:43:57;98120.97;;;5.12;100.00
5283;BME280;15376;48.540;9.268;2023-04-09T03:46:22;98128.47;;;5.16;100.00
5283;BME280;15376;48.540;9.268;2023-04-09T03:48:47;98115.44;;;5.15;100.00
5283;BME280;15376;48.540;9.268;2023-04-09T03:51:14;98124.16;;;5.25;100.00
5283;BME280;15376;48.540;9.268;2023-04-09T03:53:40;98119.06;;;5.33;100.00
5283;BME280;15376;48.540;9.268;2023-04-09T03:56:06;98111.97;;;5.24;100.00
5283;BME280;15376;48.540;9.268;2023-04-09T03:58:32;98107.25;;;5.18;100.00
5283;BME280;15376;48.540;9.268;2023-04-09T04:00:57;98102.09;;;5.07;100.00
5283;BME280;15376;48.540;9.268;2023-04-09T04:03:23;98120.00;;;5.13;100.00
5283;BME280;15376;48.540;9.268;2023-04-09T04:05:48;98117.31;;;5.03;100.00
5283;BME280;15376;48.540;9.268;2023-04-09T04:08:13;98104.56;;;4.98;100.00
5283;BME280;15376;48.540;9.268;2023-04-09T04:10:39;98107.44;;;4.95;100.00
5283;BME280;15376;48.540;9.268;2023-04-09T04:13:07;98110.78;;;4.97;100.00
5283;BME280;15376;48.540;9.268;2023-04-09T04:15:38;98114.31;;;4.87;100.00
5283;BME280;15376;48.540;9.268;2023-04-09T04:18:04;98117.09;;;4.85;100.00
5283;BME280;15376;48.540;9.268;2023-04-09T04:20:32;98121.56;;;4.94;100.00
5283;BME280;15376;48.540;9.268;2023-04-09T04:22:57;98118.22;;;4.92;100.00
5283;BME280;15376;48.540;9.268;2023-04-09T04:25:22;98119.84;;;4.84;100.00
5283;BME280;15376;48.540;9.268;2023-04-09T04:27:48;98132.44;;;4.80;100.00
5283;BME280;15376;48.540;9.268;2023-04-09T04:30:13;98116.50;;;4.72;100.00
5283;BME280;15376;48.540;9.268;2023-04-09T04:32:38;98113.59;;;4.75;100.00
5283;BME280;15376;48.540;9.268;2023-04-09T04:35:04;98124.53;;;4.80;100.00
5283;BME280;15376;48.540;9.268;2023-04-09T04:37:29;98122.75;;;4.81;100.00
5283;BME280;15376;48.540;9.268;2023-04-09T04:39:55;98119.84;;;4.84;100.00
5283;BME280;15376;48.540;9.268;2023-04-09T04:42:20;98125.25;;;4.82;100.00
5283;BME280;15376;48.540;9.268;2023-04-09T04:44:47;98138.41;;;4.82;100.00
5283;BME280;15376;48.540;9.268;2023-04-09T04:47:12;98141.03;;;4.82;100.00
5283;BME280;15376;48.540;9.268;2023-04-09T04:49:37;98136.69;;;4.72;100.00
5283;BME280;15376;48.540;9.268;2023-04-09T04:52:03;98133.81;;;4.75;100.00
5283;BME280;15376;48.540;9.268;2023-04-09T04:54:28;98135.63;;;4.84;100.00
5283;BME280;15376;48.540;9.268;2023-04-09T04:56:54;98142.06;;;4.91;100.00
5283;BME280;15376;48.540;9.268;2023-04-09T04:59:20;98146.53;;;5.00;100.00
5283;BME280;15376;48.540;9.268;2023-04-09T05:01:45;98148.19;;;5.01;100.00
5283;BME280;15376;48.540;9.268;2023-04-09T05:04:11;98138.72;;;4.89;100.00
5283;BME280;15376;48.540;9.268;2023-04-09T05:06:36;98150.91;;;4.90;100.00
5283;BME280;15376;48.540;9.268;2023-04-09T05:09:01;98138.13;;;4.85;100.00
5283;BME280;15376;48.540;9.268;2023-04-09T05:11:27;98133.06;;;4.93;100.00
5283;BME280;15376;48.540;9.268;2023-04-09T05:13:52;98153.19;;;5.04;100.00
5283;BME280;15376;48.540;9.268;2023-04-09T05:16:19;98141.41;;;4.98;100.00
5283;BME280;15376;48.540;9.268;2023-04-09T05:18:45;98144.47;;;5.03;100.00
5283;BME280;15376;48.540;9.268;2023-04-09T05:21:10;98134.06;;;5.02;100.00
5283;BME280;15376;48.540;9.268;2023-04-09T05:23:36;98142.59;;;5.15;100.00
5283;BME280;15376;48.540;9.268;2023-04-09T05:26:01;98132.16;;;5.04;100.00
5283;BME280;15376;48.540;9.268;2023-04-09T05:28:27;98137.59;;;5.12;100.00
5283;BME280;15376;48.540;9.268;2023-04-09T05:30:52;98142.34;;;5.28;100.00
5283;BME280;15376;48.540;9.268;2023-04-09T05:33:18;98146.53;;;5.40;100.00
5283;BME280;15376;48.540;9.268;2023-04-09T05:35:44;98127.56;;;5.46;100.00
5283;BME280;15376;48.540;9.268;2023-04-09T05:38:10;98131.88;;;5.66;100.00
5283;BME280;15376;48.540;9.268;2023-04-09T05:40:35;98136.22;;;5.87;100.00
5283;BME280;15376;48.540;9.268;2023-04-09T05:43:01;98139.59;;;6.08;100.00
5283;BME280;15376;48.540;9.268;2023-04-09T05:45:26;98137.50;;;6.21;100.00
5283;BME280;15376;48.540;9.268;2023-04-09T05:47:53;98137.78;;;6.38;100.00
5283;BME280;15376;48.540;9.268;2023-04-09T05:50:18;98127.38;;;6.26;100.00
5283;BME280;15376;48.540;9.268;2023-04-09T05:52:43;98129.44;;;6.42;100.00
5283;BME280;15376;48.540;9.268;2023-04-09T05:55:09;98127.25;;;6.38;100.00
5283;BME280;15376;48.540;9.268;2023-04-09T05:57:34;98106.28;;;6.26;100.00
5283;BME280;15376;48.540;9.268;2023-04-09T06:00:00;98127.47;;;6.44;100.00
5283;BME280;15376;48.540;9.268;2023-04-09T06:02:26;98129.84;;;6.47;100.00
5283;BME280;15376;48.540;9.268;2023-04-09T06:04:51;98112.63;;;6.43;100.00
5283;BME280;15376;48.540;9.268;2023-04-09T06:07:16;98128.16;;;6.56;100.00
5283;BME280;15376;48.540;9.268;2023-04-09T06:09:42;98129.69;;;6.49;100.00
5283;BME280;15376;48.540;9.268;2023-04-09T06:12:11;98130.94;;;6.54;100.00
5283;BME280;15376;48.540;9.268;2023-04-09T06:14:37;98121.22;;;6.55;100.00
5283;BME280;15376;48.540;9.268;2023-04-09T06:17:02;98140.66;;;6.63;100.00
5283;BME280;15376;48.540;9.268;2023-04-09T06:19:28;98126.78;;;6.61;100.00
5283;BME280;15376;48.540;9.268;2023-04-09T06:21:53;98143.69;;;6.78;100.00
5283;BME280;15376;48.540;9.268;2023-04-09T06:24:18;98140.66;;;6.73;100.00
5283;BME280;15376;48.540;9.268;2023-04-09T06:26:44;98127.53;;;6.81;100.00
5283;BME280;15376;48.540;9.268;2023-04-09T06:29:10;98137.19;;;7.10;100.00
5283;BME280;15376;48.540;9.268;2023-04-09T06:31:35;98133.03;;;7.34;100.00
5283;BME280;15376;48.540;9.268;2023-04-09T06:34:00;98137.47;;;7.61;100.00
5283;BME280;15376;48.540;9.268;2023-04-09T06:36:26;98132.66;;;7.75;100.00
5283;BME280;15376;48.540;9.268;2023-04-09T06:38:52;98136.97;;;7.76;100.00
5283;BME280;15376;48.540;9.268;2023-04-09T06:41:21;98119.22;;;7.86;100.00
5283;BME280;15376;48.540;9.268;2023-04-09T06:43:47;98135.91;;;8.04;100.00
5283;BME280;15376;48.540;9.268;2023-04-09T06:46:13;98137.81;;;8.29;100.00
5283;BME280;15376;48.540;9.268;2023-04-09T06:48:41;98136.69;;;8.50;100.00
5283;BME280;15376;48.540;9.268;2023-04-09T06:51:08;98134.50;;;8.45;100.00
5283;BME280;15376;48.540;9.268;2023-04-09T06:53:34;98146.88;;;8.62;100.00
5283;BME280;15376;48.540;9.268;2023-04-09T06:55:59;98141.88;;;8.85;100.00
5283;BME280;15376;48.540;9.268;2023-04-09T06:58:25;98145.66;;;8.57;100.00
5283;BME280;15376;48.540;9.268;2023-04-09T07:00:50;98148.69;;;8.62;100.00
5283;BME280;15376;48.540;9.268;2023-04-09T07:03:16;98138.63;;;8.65;100.00
5283;BME280;15376;48.540;9.268;2023-04-09T07:05:41;98133.91;;;8.77;100.00
5283;BME280;15376;48.540;9.268;2023-04-09T07:08:07;98136.19;;;8.72;100.00
5283;BME280;15376;48.540;9.268;2023-04-09T07:10:32;98144.69;;;8.58;100.00
5283;BME280;15376;48.540;9.268;2023-04-09T07:12:57;98120.97;;;8.30;100.00
5283;BME280;15376;48.540;9.268;2023-04-09T07:15:23;98126.81;;;8.34;100.00
5283;BME280;15376;48.540;9.268;2023-04-09T07:17:48;98134.94;;;8.41;100.00
5283;BME280;15376;48.540;9.268;2023-04-09T07:20:13;98140.47;;;8.47;100.00
5283;BME280;15376;48.540;9.268;2023-04-09T07:22:39;98141.06;;;8.59;100.00
5283;BME280;15376;48.540;9.268;2023-04-09T07:25:06;98135.16;;;8.65;100.00
5283;BME280;15376;48.540;9.268;2023-04-09T07:27:31;98141.22;;;8.57;100.00
5283;BME280;15376;48.540;9.268;2023-04-09T07:29:58;98133.38;;;8.74;100.00
5283;BME280;15376;48.540;9.268;2023-04-09T07:32:24;98139.88;;;8.79;100.00
5283;BME280;15376;48.540;9.268;2023-04-09T07:34:51;98146.03;;;8.88;100.00
5283;BME280;15376;48.540;9.268;2023-04-09T07:37:17;98152.69;;;8.92;100.00
5283;BME280;15376;48.540;9.268;2023-04-09T07:39:43;98141.84;;;8.77;100.00
5283;BME280;15376;48.540;9.268;2023-04-09T07:42:08;98152.47;;;8.85;100.00
5283;BME280;15376;48.540;9.268;2023-04-09T07:44:35;98161.06;;;9.05;98.67
5283;BME280;15376;48.540;9.268;2023-04-09T07:47:05;98163.28;;;8.92;97.54
5283;BME280;15376;48.540;9.268;2023-04-09T07:49:31;98161.56;;;8.57;100.00
5283;BME280;15376;48.540;9.268;2023-04-09T07:51:58;98159.56;;;8.33;100.00
5283;BME280;15376;48.540;9.268;2023-04-09T07:54:24;98161.75;;;8.38;100.00
5283;BME280;15376;48.540;9.268;2023-04-09T07:56:50;98161.41;;;8.41;100.00
5283;BME280;15376;48.540;9.268;2023-04-09T07:59:15;98161.84;;;8.54;99.46
5283;BME280;15376;48.540;9.268;2023-04-09T08:01:41;98165.34;;;8.80;97.03
5283;BME280;15376;48.540;9.268;2023-04-09T08:04:06;98157.84;;;9.19;96.34
5283;BME280;15376;48.540;9.268;2023-04-09T08:06:32;98171.41;;;9.50;91.78
5283;BME280;15376;48.540;9.268;2023-04-09T08:08:57;98151.22;;;9.57;90.79
5283;BME280;15376;48.540;9.268;2023-04-09T08:11:22;98160.78;;;9.50;90.13
5283;BME280;15376;48.540;9.268;2023-04-09T08:13:51;98160.16;;;9.56;90.90
5283;BME280;15376;48.540;9.268;2023-04-09T08:16:17;98158.56;;;9.80;91.54
5283;BME280;15376;48.540;9.268;2023-04-09T08:18:42;98162.03;;;10.39;88.49
5283;BME280;15376;48.540;9.268;2023-04-09T08:21:07;98168.88;;;11.37;86.79
5283;BME280;15376;48.540;9.268;2023-04-09T08:23:33;98174.75;;;11.63;74.83
5283;BME280;15376;48.540;9.268;2023-04-09T08:25:58;98171.56;;;12.07;74.26
5283;BME280;15376;48.540;9.268;2023-04-09T08:28:23;98181.78;;;12.26;71.74
5283;BME280;15376;48.540;9.268;2023-04-09T08:30:49;98176.66;;;11.94;67.41
5283;BME280;15376;48.540;9.268;2023-04-09T08:33:14;98187.75;;;11.58;67.58
5283;BME280;15376;48.540;9.268;2023-04-09T08:35:40;98184.00;;;11.36;69.14
5283;BME280;15376;48.540;9.268;2023-04-09T08:38:08;98195.47;;;11.37;68.91
5283;BME280;15376;48.540;9.268;2023-04-09T08:40:34;98196.47;;;11.36;67.26
5283;BME280;15376;48.540;9.268;2023-04-09T08:43:03;98187.56;;;11.13;66.02
5283;BME280;15376;48.540;9.268;2023-04-09T08:45:29;98189.53;;;11.11;66.05
5283;BME280;15376;48.540;9.268;2023-04-09T08:47:55;98191.16;;;11.28;67.20
5283;BME280;15376;48.540;9.268;2023-04-09T08:50:24;98191.63;;;11.40;64.72
5283;BME280;15376;48.540;9.268;2023-04-09T08:52:49;98185.16;;;11.34;64.12
5283;BME280;15376;48.540;9.268;2023-04-09T08:55:15;98197.78;;;11.40;62.41
5283;BME280;15376;48.540;9.268;2023-04-09T08:57:41;98199.06;;;11.52;62.72
5283;BME280;15376;48.540;9.268;2023-04-09T09:00:07;98196.69;;;11.65;60.28
5283;BME280;15376;48.540;9.268;2023-04-09T09:02:33;98198.50;;;11.81;61.43
5283;BME280;15376;48.540;9.268;2023-04-09T09:04:59;98193.31;;;11.88;59.80
5283;BME280;15376;48.540;9.268;2023-04-09T09:07:28;98206.81;;;12.09;59.98
5283;BME280;15376;48.540;9.268;2023-04-09T09:09:58;98208.41;;;12.26;57.71
5283;BME280;15376;48.540;9.268;2023-04-09T09:12:35;98197.28;;;11.92;56.82
5283;BME280;15376;48.540;9.268;2023-04-09T09:15:01;98203.41;;;11.45;59.38
5283;BME280;15376;48.540;9.268;2023-04-09T09:17:26;98208.25;;;11.33;60.61
5283;BME280;15376;48.540;9.268;2023-04-09T09:19:51;98212.63;;;11.10;60.35
5283;BME280;15376;48.540;9.268;2023-04-09T09:22:17;98208.81;;;11.13;60.10
5283;BME280;15376;48.540;9.268;2023-04-09T09:24:50;98208.75;;;11.29;60.89
5283;BME280;15376;48.540;9.268;2023-04-09T09:27:36;98204.84;;;11.09;61.09
5283;BME280;15376;48.540;9.268;2023-04-09T09:30:04;98212.16;;;11.07;60.59
5283;BME280;15376;48.540;9.268;2023-04-09T09:32:30;98209.31;;;11.00;61.94
5283;BME280;15376;48.540;9.268;2023-04-09T09:35:04;98215.63;;;10.91;64.20
5283;BME280;15376;48.540;9.268;2023-04-09T09:37:30;98211.19;;;10.75;63.07
5283;BME280;15376;48.540;9.268;2023-04-09T09:39:57;98225.78;;;10.63;64.07
5283;BME280;15376;48.540;9.268;2023-04-09T09:42:22;98218.59;;;10.47;64.44
5283;BME280;15376;48.540;9.268;2023-04-09T09:44:48;98227.59;;;10.54;65.29
5283;BME280;15376;48.540;9.268;2023-04-09T09:47:17;98223.28;;;10.69;65.49
5283;BME280;15376;48.540;9.268;2023-04-09T09:49:44;98224.59;;;10.82;65.37
5283;BME280;15376;48.540;9.268;2023-04-09T09:52:10;98217.78;;;10.95;65.79
5283;BME280;15376;48.540;9.268;2023-04-09T09:54:47;98212.13;;;11.15;64.17
5283;BME280;15376;48.540;9.268;2023-04-09T09:57:16;98216.03;;;11.59;62.05
5283;BME280;15376;48.540;9.268;2023-04-09T09:59:52;98217.78;;;13.43;56.96
5283;BME280;15376;48.540;9.268;2023-04-09T10:02:19;98214.56;;;15.69;53.28
5283;BME280;15376;48.540;9.268;2023-04-09T10:04:47;98211.63;;;16.59;48.90
5283;BME280;15376;48.540;9.268;2023-04-09T10:07:13;98219.97;;;14.92;45.30
5283;BME280;15376;48.540;9.268;2023-04-09T10:09:41;98223.22;;;13.64;47.45
5283;BME280;15376;48.540;9.268;2023-04-09T10:12:10;98222.47;;;12.66;51.71
5283;BME280;15376;48.540;9.268;2023-04-09T10:14:37;98228.31;;;12.61;51.77
5283;BME280;15376;48.540;9.268;2023-04-09T10:17:03;98228.88;;;12.26;52.93
5283;BME280;15376;48.540;9.268;2023-04-09T10:19:30;98215.44;;;12.19;53.51
5283;BME280;15376;48.540;9.268;2023-04-09T10:22:10;98220.19;;;12.55;53.77
5283;BME280;15376;48.540;9.268;2023-04-09T10:24:37;98219.94;;;12.42;53.02
5283;BME280;15376;48.540;9.268;2023-04-09T10:29:49;98225.03;;;11.97;53.00
5283;BME280;15376;48.540;9.268;2023-04-09T10:32:22;98223.78;;;11.77;53.81
5283;BME280;15376;48.540;9.268;2023-04-09T10:34:51;98220.44;;;11.83;53.47
5283;BME280;15376;48.540;9.268;2023-04-09T10:37:26;98210.63;;;11.84;53.66
5283;BME280;15376;48.540;9.268;2023-04-09T10:39:52;98217.31;;;12.11;53.56
5283;BME280;15376;48.540;9.268;2023-04-09T10:42:35;98216.56;;;12.48;53.02
5283;BME280;15376;48.540;9.268;2023-04-09T10:45:12;98216.69;;;12.54;52.63
5283;BME280;15376;48.540;9.268;2023-04-09T10:47:40;98211.00;;;12.80;53.44
5283;BME280;15376;48.540;9.268;2023-04-09T10:50:25;98208.94;;;13.28;50.69
5283;BME280;15376;48.540;9.268;2023-04-09T10:52:53;98208.50;;;13.54;50.03
5283;BME280;15376;48.540;9.268;2023-04-09T10:55:33;98207.66;;;13.83;48.93
5283;BME280;15376;48.540;9.268;2023-04-09T10:57:59;98197.09;;;16.21;45.94
5283;BME280;15376;48.540;9.268;2023-04-09T11:00:24;98202.53;;;15.86;43.76
5283;BME280;15376;48.540;9.268;2023-04-09T11:05:33;98207.97;;;15.37;43.59
5283;BME280;15376;48.540;9.268;2023-04-09T11:08:12;98203.03;;;16.16;43.64
5283;BME280;15376;48.540;9.268;2023-04-09T11:10:40;98196.47;;;15.43;44.32
5283;BME280;15376;48.540;9.268;2023-04-09T11:13:09;98186.31;;;14.55;45.77
5283;BME280;15376;48.540;9.268;2023-04-09T11:15:35;98188.47;;;14.66;46.21
5283;BME280;15376;48.540;9.268;2023-04-09T11:18:03;98190.16;;;14.31;46.17
5283;BME280;15376;48.540;9.268;2023-04-09T11:20:33;98188.22;;;14.25;46.68
5283;BME280;15376;48.540;9.268;2023-04-09T11:22:59;98186.53;;;16.13;43.51
5283;BME280;15376;48.540;9.268;2023-04-09T11:25:27;98187.50;;;15.92;41.69
5283;BME280;15376;48.540;9.268;2023-04-09T11:27:52;98181.69;;;15.47;44.35
5283;BME280;15376;48.540;9.268;2023-04-09T11:30:19;98180.41;;;14.87;43.21
5283;BME280;15376;48.540;9.268;2023-04-09T11:32:45;98181.19;;;14.39;44.41
5283;BME280;15376;48.540;9.268;2023-04-09T11:35:11;98175.47;;;14.06;45.86
5283;BME280;15376;48.540;9.268;2023-04-09T11:37:37;98173.50;;;14.14;46.83
5283;BME280;15376;48.540;9.268;2023-04-09T11:40:03;98167.31;;;13.92;45.64
5283;BME280;15376;48.540;9.268;2023-04-09T11:42:31;98167.81;;;14.02;46.34
5283;BME280;15376;48.540;9.268;2023-04-09T11:44:57;98161.41;;;13.97;47.30
5283;BME280;15376;48.540;9.268;2023-04-09T11:47:23;98169.16;;;13.92;46.40
5283;BME280;15376;48.540;9.268;2023-04-09T11:49:49;98166.91;;;13.59;46.92
5283;BME280;15376;48.540;9.268;2023-04-09T11:52:14;98173.25;;;13.58;48.51
5283;BME280;15376;48.540;9.268;2023-04-09T11:54:40;98167.28;;;13.56;48.14
5283;BME280;15376;48.540;9.268;2023-04-09T11:57:06;98162.41;;;13.45;48.13
5283;BME280;15376;48.540;9.268;2023-04-09T11:59:31;98165.69;;;13.62;47.22
5283;BME280;15376;48.540;9.268;2023-04-09T12:01:57;98154.94;;;13.41;46.52
5283;BME280;15376;48.540;9.268;2023-04-09T12:04:23;98151.16;;;13.35;45.94
5283;BME280;15376;48.540;9.268;2023-04-09T12:06:49;98163.13;;;13.54;47.03
5283;BME280;15376;48.540;9.268;2023-04-09T12:09:14;98149.34;;;13.50;47.84
5283;BME280;15376;48.540;9.268;2023-04-09T12:11:44;98162.78;;;13.57;47.33
5283;BME280;15376;48.540;9.268;2023-04-09T12:14:14;98156.41;;;13.58;45.70
5283;BME280;15376;48.540;9.268;2023-04-09T12:16:41;98153.91;;;13.12;46.44
5283;BME280;15376;48.540;9.268;2023-04-09T12:19:10;98163.72;;;12.97;47.77
5283;BME280;15376;48.540;9.268;2023-04-09T12:21:54;98135.88;;;12.62;48.30
5283;BME280;15376;48.540;9.268;2023-04-09T12:24:23;98156.44;;;12.91;48.63
5283;BME280;15376;48.540;9.268;2023-04-09T12:26:49;98158.41;;;13.12;47.48
5283;BME280;15376;48.540;9.268;2023-04-09T12:29:16;98154.56;;;13.29;47.17
5283;BME280;15376;48.540;9.268;2023-04-09T12:31:42;98148.41;;;13.43;46.00
5283;BME280;15376;48.540;9.268;2023-04-09T12:34:07;98157.56;;;13.85;46.17
5283;BME280;15376;48.540;9.268;2023-04-09T12:36:33;98149.66;;;13.77;45.17
5283;BME280;15376;48.540;9.268;2023-04-09T12:38:59;98148.00;;;13.61;45.82
5283;BME280;15376;48.540;9.268;2023-04-09T12:41:25;98143.25;;;13.56;45.85
5283;BME280;15376;48.540;9.268;2023-04-09T12:43:50;98138.97;;;13.77;46.49
5283;BME280;15376;48.540;9.268;2023-04-09T12:46:17;98136.31;;;13.62;46.88
5283;BME280;15376;48.540;9.268;2023-04-09T12:48:43;98136.50;;;13.60;45.77
5283;BME280;15376;48.540;9.268;2023-04-09T12:51:08;98130.34;;;13.60;45.02
5283;BME280;15376;48.540;9.268;2023-04-09T12:53:35;98122.03;;;13.84;45.35
5283;BME280;15376;48.540;9.268;2023-04-09T12:56:01;98128.13;;;14.35;43.82
5283;BME280;15376;48.540;9.268;2023-04-09T12:58:27;98122.47;;;14.94;45.80
5283;BME280;15376;48.540;9.268;2023-04-09T13:00:52;98115.34;;;14.80;43.88
5283;BME280;15376;48.540;9.268;2023-04-09T13:03:18;98114.44;;;14.94;45.26
5283;BME280;15376;48.540;9.268;2023-04-09T13:05:44;98119.88;;;15.08;44.23
5283;BME280;15376;48.540;9.268;2023-04-09T13:08:09;98118.03;;;15.08;42.66
5283;BME280;15376;48.540;9.268;2023-04-09T13:10:35;98117.38;;;14.50;43.60
5283;BME280;15376;48.540;9.268;2023-04-09T13:13:01;98112.06;;;14.14;44.31
5283;BME280;15376;48.540;9.268;2023-04-09T13:15:27;98106.38;;;14.88;45.17
5283;BME280;15376;48.540;9.268;2023-04-09T13:17:52;98100.03;;;14.95;44.06
5283;BME280;15376;48.540;9.268;2023-04-09T13:20:17;98108.78;;;14.83;44.11